Time,TemperatureF,DewpointF,PressureIn,WindDirection,WindDirectionDegrees,WindSpeedMPH,WindSpeedGustMPH,Humidity,HourlyPrecipIn,Conditions,Clouds,dailyrainin,SoftwareType,DateUTC
2013-03-17 00:02:00,39.0,28.0,-100.00,ESE,120,16.0,27.0,64,-99.99,,,-99.99,,2013-03-17 07:02:00,
2013-03-17 01:02:00,37.0,29.0,-100.00,North,5,6.0,13.0,72,-99.99,,,-99.99,,2013-03-17 08:02:00,
2013-03-17 01:12:00,37.0,29.0,-100.00,North,5,6.0,13.0,72,-99.99,,,-99.99,,2013-03-17 08:12:00,
2013-03-17 02:02:00,37.0,32.0,-100.00,SE,145,7.0,16.0,81,-99.99,,,-99.99,,2013-03-17 09:02:00,
2013-03-17 03:03:00,35.0,33.0,-100.00,NNE,25,2.0,9.0,92,-99.99,,,-99.99,,2013-03-17 10:03:00,
2013-03-17 03:13:00,35.0,33.0,-100.00,NNE,25,2.0,9.0,92,-99.99,,,-99.99,,2013-03-17 10:13:00,
2013-03-17 04:02:00,35.0,31.0,-100.00,NNE,15,5.0,9.0,85,-99.99,,,-99.99,,2013-03-17 11:02:00,
2013-03-17 05:02:00,32.0,29.0,-100.00,WSW,250,1.0,3.0,88,-99.99,,,-99.99,,2013-03-17 12:02:00,
2013-03-17 05:12:00,32.0,29.0,-100.00,WSW,250,1.0,3.0,88,-99.99,,,-99.99,,2013-03-17 12:12:00,
2013-03-17 06:02:00,36.0,28.0,-100.00,South,170,5.0,9.0,72,-99.99,,,-99.99,,2013-03-17 13:02:00,
2013-03-17 06:10:00,37.0,26.0,-100.00,North,360,6.0,9.0,64,-99.99,,,-99.99,,2013-03-17 13:10:00,
2013-03-17 07:02:00,37.0,26.0,-100.00,North,360,6.0,9.0,64,-99.99,,,-99.99,,2013-03-17 14:02:00,
2013-03-17 08:02:00,38.0,25.0,-100.00,NE,55,3.0,9.0,59,-99.99,,,-99.99,,2013-03-17 15:02:00,
2013-03-17 08:10:00,37.0,26.0,-100.00,SE,130,1.0,13.0,64,-99.99,,,-99.99,,2013-03-17 15:10:00,
2013-03-17 09:00:00,40.0,26.0,-100.00,NE,45,3.0,6.0,57,-99.99,,,-99.99,,2013-03-17 16:00:00,
2013-03-17 09:03:00,37.0,26.0,-100.00,SE,130,1.0,13.0,64,-99.99,,,-99.99,,2013-03-17 16:03:00,
2013-03-17 10:10:00,45.0,27.0,-100.00,ESE,115,13.0,21.0,49,-99.99,,,-99.99,,2013-03-17 17:10:00,
2013-03-17 11:02:00,45.0,27.0,-100.00,ESE,115,13.0,21.0,49,-99.99,,,-99.99,,2013-03-17 18:02:00,
2013-03-17 11:20:00,47.0,23.0,-100.00,SE,135,14.0,20.0,38,-99.99,,,-99.99,,2013-03-17 18:20:00,
2013-03-17 12:02:00,47.0,23.0,-100.00,SE,135,14.0,20.0,38,-99.99,,,-99.99,,2013-03-17 19:02:00,
2013-03-17 12:10:00,47.0,21.0,-100.00,SSE,150,12.0,20.0,35,-99.99,,,-99.99,,2013-03-17 19:10:00,
2013-03-17 12:12:00,47.0,23.0,-100.00,SE,135,14.0,20.0,38,-99.99,,,-99.99,,2013-03-17 19:12:00,
2013-03-17 13:02:00,47.0,21.0,-100.00,SSE,150,12.0,20.0,35,-99.99,,,-99.99,,2013-03-17 20:02:00,
2013-03-17 14:02:00,50.0,21.0,-100.00,ENE,70,12.0,18.0,31,-99.99,,,-99.99,,2013-03-17 21:02:00,
2013-03-17 14:10:00,49.0,20.0,-100.00,SE,130,9.0,17.0,31,-99.99,,,-99.99,,2013-03-17 21:10:00,
2013-03-17 14:12:00,50.0,21.0,-100.00,ENE,70,12.0,18.0,31,-99.99,,,-99.99,,2013-03-17 21:12:00,
2013-03-17 15:03:00,49.0,20.0,-100.00,SE,130,9.0,17.0,31,-99.99,,,-99.99,,2013-03-17 22:03:00,
2013-03-17 16:02:00,50.0,19.0,-100.00,SE,145,10.0,17.0,29,-99.99,,,-99.99,,2013-03-17 23:02:00,
2013-03-17 16:12:00,50.0,19.0,-100.00,SE,145,10.0,17.0,29,-99.99,,,-99.99,,2013-03-17 23:12:00,
2013-03-17 17:03:00,48.0,19.0,-100.00,SE,135,10.0,14.0,31,-99.99,,,-99.99,,2013-03-18 00:03:00,
2013-03-17 18:01:00,51.0,17.0,-100.00,East,90,9.0,16.0,25,-99.99,,,-99.99,,2013-03-18 01:01:00,
2013-03-17 18:12:00,51.0,17.0,-100.00,East,90,9.0,16.0,25,-99.99,,,-99.99,,2013-03-18 01:12:00,
2013-03-17 19:02:00,49.0,16.0,-100.00,ENE,60,7.0,14.0,26,-99.99,,,-99.99,,2013-03-18 02:02:00,
2013-03-17 20:02:00,44.0,17.0,-100.00,North,5,3.0,7.0,33,-99.99,,,-99.99,,2013-03-18 03:02:00,
2013-03-17 20:11:00,44.0,17.0,-100.00,North,5,3.0,7.0,33,-99.99,,,-99.99,,2013-03-18 03:11:00,
2013-03-17 21:03:00,42.0,18.0,-100.00,SSE,155,3.0,6.0,37,-99.99,,,-99.99,,2013-03-18 04:03:00,
2013-03-17 22:02:00,37.0,21.0,-100.00,East,85,2.0,6.0,51,-99.99,,,-99.99,,2013-03-18 05:02:00,
2013-03-17 22:12:00,37.0,21.0,-100.00,East,85,2.0,6.0,51,-99.99,,,-99.99,,2013-03-18 05:12:00,
2013-03-17 23:02:00,35.0,21.0,-100.00,SSE,165,2.0,3.0,56,-99.99,,,-99.99,,2013-03-18 06:02:00,
2013-03-17 23:10:00,35.0,20.0,-100.00,ESE,110,0.0,1.0,53,-99.99,,,-99.99,,2013-03-18 06:10:00,